Time;durP1;ratioP1;P1;durP2;ratioP2;P2;SDS_P1;SDS_P2;PMS_P1;PMS_P2;Temp;Humidity;BMP_temperature;BMP_pressure;BME280_temperature;BME280_humidity;BME280_pressure;Samples;Min_cycle;Max_cycle;Signal;HPM_P1;HPM_P2
2021/12/05 00:18:38;;;;;;;11.43;1.58;;;4.50;99.90;;;;;;4996839;28;20034;-78
2021/12/05 00:24:00;;;;;;;14.18;1.70;;;4.40;99.90;;;;;;4996790;28;20053;-78
2021/12/05 00:26:27;;;;;;;20.10;1.20;;;4.40;99.90;;;;;;4978878;28;20029;-78
2021/12/05 00:29:11;;;;;;;19.25;1.98;;;4.30;99.90;;;;;;4978453;28;20033;-78
2021/12/05 00:31:54;;;;;;;26.92;2.78;;;4.30;99.90;;;;;;4996046;28;20366;-78
2021/12/05 00:45:30;;;;;;;7.78;1.25;;;4.50;99.90;;;;;;4995896;28;20030;-77
2021/12/05 00:50:35;;;;;;;13.35;2.20;;;4.50;99.90;;;;;;4996655;28;20121;-77
2021/12/05 00:55:58;;;;;;;15.55;1.83;;;4.50;99.90;;;;;;4995964;28;20030;-77
2021/12/05 01:03:56;;;;;;;17.77;1.77;;;4.50;99.90;;;;;;4996171;28;20038;-78
2021/12/05 01:09:23;;;;;;;9.80;1.00;;;4.60;99.90;;;;;;4996299;28;20093;-78
2021/12/05 01:14:37;;;;;;;10.30;0.93;;;4.50;99.90;;;;;;4996196;28;20073;-78
2021/12/05 01:17:03;;;;;;;8.02;1.05;;;4.50;99.90;;;;;;4979127;28;20368;-78
2021/12/05 01:19:31;;;;;;;14.35;1.63;;;4.50;99.90;;;;;;4995486;28;20518;-78
2021/12/05 01:22:03;;;;;;;8.13;1.35;;;4.50;99.90;;;;;;4995413;28;20395;-78
2021/12/05 01:29:47;;;;;;;11.63;2.03;;;4.50;99.90;;;;;;4995170;28;20424;-78
2021/12/05 01:54:23;;;;;;;23.15;1.48;;;4.60;99.90;;;;;;4916628;29;20148;-76
2021/12/05 01:59:53;;;;;;;9.82;0.88;;;4.60;99.90;;;;;;4994996;28;20515;-76
2021/12/05 02:02:58;;;;;;;7.75;1.27;;;4.60;99.90;;;;;;4977797;28;20073;-76
2021/12/05 02:08:18;;;;;;;15.05;2.30;;;4.50;99.90;;;;;;4995835;28;20387;-77
2021/12/05 02:35:26;;;;;;;8.45;0.60;;;4.30;99.90;;;;;;4995579;28;20114;-77
2021/12/05 02:45:23;;;;;;;6.78;1.02;;;4.10;99.90;;;;;;4994973;28;20057;-77
2021/12/05 02:47:51;;;;;;;11.07;1.45;;;4.10;99.90;;;;;;4977595;28;20058;-77
2021/12/05 02:50:19;;;;;;;6.83;0.40;;;4.00;99.90;;;;;;4998307;28;20027;-78
2021/12/05 02:52:45;;;;;;;7.30;0.68;;;4.00;99.90;;;;;;4997692;28;20442;-78
2021/12/05 02:55:24;;;;;;;6.50;0.63;;;3.90;99.90;;;;;;4998247;28;20102;-77
2021/12/05 02:57:52;;;;;;;6.70;0.80;;;3.90;99.90;;;;;;4980538;28;20022;-76
2021/12/05 03:00:33;;;;;;;7.72;0.95;;;3.80;99.90;;;;;;4997975;28;20029;-77
2021/12/05 03:03:00;;;;;;;11.13;1.17;;;3.70;99.90;;;;;;4998255;28;20537;-78
2021/12/05 03:05:26;;;;;;;3.53;0.68;;;3.60;99.90;;;;;;4998066;28;20026;-78
2021/12/05 03:07:57;;;;;;;8.40;1.38;;;3.60;99.90;;;;;;4997970;28;20106;-77
2021/12/05 03:10:23;;;;;;;7.57;0.75;;;3.50;99.90;;;;;;4998134;28;20023;-78
2021/12/05 03:12:49;;;;;;;11.02;0.68;;;3.40;99.90;;;;;;4998129;28;20022;-78
2021/12/05 03:15:17;;;;;;;10.40;1.13;;;4.40;99.90;;;;;;4997711;28;20030;-78
2021/12/05 03:17:43;;;;;;;9.50;0.80;;;3.30;99.90;;;;;;4980175;28;20035;-77
2021/12/05 03:20:11;;;;;;;7.15;0.40;;;3.30;99.90;;;;;;4997756;28;20030;-78
2021/12/05 03:22:37;;;;;;;5.03;0.47;;;3.30;99.90;;;;;;4980395;28;20120;-78
2021/12/05 03:25:05;;;;;;;10.25;0.70;;;3.40;99.90;;;;;;4980328;28;20134;-78
2021/12/05 03:27:31;;;;;;;9.07;1.17;;;3.40;99.90;;;;;;4980404;28;20023;-78
2021/12/05 03:29:58;;;;;;;14.82;0.65;;;3.40;99.90;;;;;;4997243;28;20041;-77
2021/12/05 03:32:24;;;;;;;10.60;0.43;;;3.50;99.90;;;;;;4997322;28;20125;-78
2021/12/05 03:34:50;;;;;;;7.53;0.52;;;3.50;99.90;;;;;;4979763;28;20089;-77
2021/12/05 03:37:16;;;;;;;10.40;0.22;;;3.50;99.90;;;;;;4980133;28;20019;-77
2021/12/05 03:39:41;;;;;;;5.20;0.28;;;3.60;99.90;;;;;;4997066;28;20491;-77
2021/12/05 03:42:07;;;;;;;5.65;0.63;;;3.60;99.90;;;;;;4979741;28;20018;-77
2021/12/05 03:44:36;;;;;;;13.52;0.80;;;3.60;99.90;;;;;;4997529;28;20029;-78
2021/12/05 03:47:05;;;;;;;5.88;0.50;;;3.60;99.90;;;;;;4997471;28;20472;-78
2021/12/05 03:49:31;;;;;;;8.82;0.75;;;3.70;99.90;;;;;;4997234;28;20094;-78
2021/12/05 03:52:09;;;;;;;8.38;0.85;;;3.70;99.90;;;;;;4979465;28;20130;-77
2021/12/05 03:54:35;;;;;;;8.05;0.73;;;3.70;99.90;;;;;;4997377;28;20472;-77
2021/12/05 03:57:02;;;;;;;7.93;0.63;;;3.80;99.90;;;;;;4996970;28;20073;-77
2021/12/05 03:59:28;;;;;;;8.65;0.50;;;3.80;99.90;;;;;;4996932;28;20046;-76
2021/12/05 04:01:55;;;;;;;6.88;0.52;;;3.80;99.90;;;;;;4996832;28;20057;-77
2021/12/05 04:04:21;;;;;;;8.35;0.80;;;3.80;99.90;;;;;;4997031;28;20060;-76
2021/12/05 04:06:48;;;;;;;13.63;0.45;;;3.90;99.90;;;;;;4997131;28;20052;-77
2021/12/05 04:09:17;;;;;;;10.68;0.80;;;3.90;99.90;;;;;;4996791;28;20027;-77
2021/12/05 04:11:55;;;;;;;5.45;0.47;;;3.90;99.90;;;;;;4997208;28;20138;-77
2021/12/05 04:14:20;;;;;;;5.93;0.60;;;3.90;99.90;;;;;;4997029;28;20026;-77
2021/12/05 04:16:46;;;;;;;5.85;0.65;;;3.90;99.90;;;;;;4996641;28;20038;-77
2021/12/05 04:19:12;;;;;;;9.57;0.65;;;3.90;99.90;;;;;;4996570;28;20412;-77
2021/12/05 04:21:41;;;;;;;8.52;0.50;;;3.90;99.90;;;;;;4979205;28;20467;-77
2021/12/05 04:24:09;;;;;;;7.40;1.17;;;3.90;99.90;;;;;;4995959;28;20098;-77
2021/12/05 04:26:35;;;;;;;8.18;0.47;;;4.00;99.90;;;;;;4997553;28;20031;-78
2021/12/05 04:29:03;;;;;;;6.03;0.80;;;4.00;99.90;;;;;;4996581;28;20034;-77
2021/12/05 04:31:28;;;;;;;5.30;0.85;;;4.00;99.90;;;;;;4996471;28;20026;-77
2021/12/05 04:33:54;;;;;;;8.52;1.38;;;4.00;99.90;;;;;;4996783;28;20487;-78
2021/12/05 04:36:20;;;;;;;5.40;0.90;;;4.10;99.90;;;;;;4995662;28;20023;-78
2021/12/05 04:38:47;;;;;;;2.78;0.93;;;4.10;99.90;;;;;;4995650;28;20031;-77
2021/12/05 04:41:12;;;;;;;6.78;0.60;;;4.10;99.90;;;;;;4996116;28;20116;-77
2021/12/05 04:43:38;;;;;;;11.43;0.73;;;4.10;99.90;;;;;;4978583;28;20467;-77
2021/12/05 04:46:13;;;;;;;8.45;0.90;;;4.10;99.90;;;;;;4996076;28;20109;-77
2021/12/05 04:48:39;;;;;;;5.85;1.00;;;4.10;99.90;;;;;;4996316;28;20026;-76
2021/12/05 04:51:05;;;;;;;6.00;1.25;;;4.10;99.90;;;;;;4996071;28;20026;-76
2021/12/05 04:53:31;;;;;;;12.00;1.17;;;4.20;99.90;;;;;;4978785;28;20373;-76
2021/12/05 04:55:57;;;;;;;8.68;0.85;;;4.10;99.90;;;;;;4996626;28;20094;-75
2021/12/05 04:58:24;;;;;;;7.80;1.40;;;4.20;99.90;;;;;;4996053;28;20027;-75
2021/12/05 05:00:52;;;;;;;12.50;1.83;;;4.20;99.90;;;;;;4978526;28;20081;-76
2021/12/05 05:03:18;;;;;;;10.03;0.80;;;4.30;99.90;;;;;;4978013;28;20534;-76
2021/12/05 05:05:53;;;;;;;7.78;0.38;;;4.20;99.90;;;;;;4995834;28;20273;-76
2021/12/05 05:08:20;;;;;;;7.63;1.15;;;4.30;99.90;;;;;;4995520;28;20019;-76
2021/12/05 05:10:47;;;;;;;11.38;3.25;;;4.30;99.90;;;;;;4994904;28;20081;-75
2021/12/05 05:13:14;;;;;;;9.05;0.82;;;4.30;99.90;;;;;;4995760;28;20026;-75
2021/12/05 05:15:39;;;;;;;7.22;0.93;;;4.30;99.90;;;;;;4995638;28;20022;-75
2021/12/05 05:18:08;;;;;;;8.10;1.20;;;4.30;99.90;;;;;;4995695;28;20468;-76
2021/12/05 05:20:43;;;;;;;7.45;1.27;;;4.30;99.90;;;;;;4978284;28;20029;-76
2021/12/05 05:23:31;;;;;;;4.15;1.40;;;4.40;99.90;;;;;;4995517;28;20022;-76
2021/12/05 05:26:30;;;;;;;8.02;1.35;;;4.40;99.90;;;;;;4996159;28;20030;-76
2021/12/05 05:39:41;;;;;;;8.70;2.22;;;4.40;99.90;;;;;;4996130;28;20490;-76
2021/12/05 05:45:28;;;;;;;3.13;1.45;;;4.40;99.90;;;;;;4916553;29;20032;-76
2021/12/05 05:50:23;;;;;;;7.20;1.67;;;4.40;99.90;;;;;;4995444;28;20035;-76
2021/12/05 05:52:49;;;;;;;9.95;1.25;;;4.40;99.90;;;;;;4994776;28;20081;-75
2021/12/05 05:55:15;;;;;;;10.10;1.83;;;4.50;99.90;;;;;;4977784;28;20065;-75
2021/12/05 05:57:56;;;;;;;4.88;1.30;;;4.40;99.90;;;;;;4995414;28;20486;-75
2021/12/05 06:00:34;;;;;;;7.60;2.20;;;4.40;99.90;;;;;;4977503;28;20023;-75
2021/12/05 06:03:21;;;;;;;8.93;2.03;;;4.40;99.90;;;;;;4995301;28;20434;-74
2021/12/05 06:05:59;;;;;;;4.72;1.33;;;4.50;99.90;;;;;;4995713;28;20053;-73
2021/12/05 06:08:27;;;;;;;4.97;1.58;;;4.50;99.90;;;;;;4995460;28;20049;-75
2021/12/05 06:10:57;;;;;;;6.50;1.80;;;4.50;99.90;;;;;;4995264;28;20030;-75
2021/12/05 06:13:23;;;;;;;5.88;2.63;;;4.50;99.90;;;;;;4994629;28;20042;-75
2021/12/05 06:15:50;;;;;;;8.90;2.33;;;4.50;99.90;;;;;;4994472;28;20022;-74
2021/12/05 06:18:16;;;;;;;10.07;2.28;;;4.60;99.90;;;;;;4977795;28;20057;-74
2021/12/05 06:20:42;;;;;;;7.63;2.00;;;4.60;99.90;;;;;;4977438;28;20033;-74
2021/12/05 06:23:09;;;;;;;6.95;1.60;;;4.60;99.90;;;;;;4997159;28;20023;-73
2021/12/05 06:25:37;;;;;;;8.55;2.45;;;4.60;99.90;;;;;;4998595;28;20026;-74
2021/12/05 06:28:12;;;;;;;5.45;2.10;;;4.70;99.90;;;;;;4980981;28;20029;-74
2021/12/05 06:30:59;;;;;;;7.53;2.00;;;4.70;99.90;;;;;;4981364;28;20060;-75
2021/12/05 06:47:04;;;;;;;7.00;2.30;;;4.70;99.90;;;;;;4998118;28;20115;-75
2021/12/05 06:49:29;;;;;;;7.72;3.42;;;4.70;99.90;;;;;;4980729;28;20014;-75
2021/12/05 06:51:55;;;;;;;6.13;2.38;;;4.60;99.90;;;;;;4980470;28;20077;-74
2021/12/05 06:54:22;;;;;;;4.80;2.25;;;4.70;99.90;;;;;;4980124;28;20388;-74
2021/12/05 06:56:48;;;;;;;8.38;2.78;;;4.70;99.90;;;;;;4998336;28;20018;-74
2021/12/05 06:59:13;;;;;;;9.73;2.65;;;4.70;99.90;;;;;;4997741;28;20039;-74
2021/12/05 07:01:39;;;;;;;6.82;2.55;;;4.70;99.90;;;;;;4997654;28;20022;-76
2021/12/05 07:04:14;;;;;;;6.32;2.45;;;4.70;99.90;;;;;;4997759;28;20023;-75
2021/12/05 07:06:41;;;;;;;7.43;3.47;;;4.70;99.90;;;;;;4997783;28;20037;-75
2021/12/05 07:09:09;;;;;;;9.77;2.20;;;4.70;99.90;;;;;;4997416;28;20030;-76
2021/12/05 07:11:49;;;;;;;11.55;2.83;;;4.70;99.90;;;;;;4998075;28;20022;-75
2021/12/05 07:17:08;;;;;;;4.45;2.33;;;4.70;99.90;;;;;;4998138;28;20104;-76
2021/12/05 07:19:51;;;;;;;11.65;3.08;;;4.70;99.90;;;;;;4979741;28;20049;-76
2021/12/05 07:22:22;;;;;;;7.45;2.80;;;4.70;99.90;;;;;;4979822;28;20050;-76
2021/12/05 07:41:27;;;;;;;8.98;2.67;;;4.70;99.90;;;;;;4997248;28;20038;-76
2021/12/05 07:43:52;;;;;;;4.63;2.38;;;4.70;99.90;;;;;;4997443;28;20027;-76
2021/12/05 07:46:18;;;;;;;8.73;3.13;;;4.70;99.90;;;;;;4996948;28;20026;-76
2021/12/05 07:48:46;;;;;;;7.15;2.97;;;4.70;99.90;;;;;;4996806;28;20030;-76
2021/12/05 07:51:39;;;;;;;4.72;2.30;;;4.70;99.90;;;;;;4996599;28;20069;-76
2021/12/05 07:54:13;;;;;;;6.43;2.35;;;4.70;99.90;;;;;;4996163;28;20030;-76
2021/12/05 07:56:54;;;;;;;8.05;2.80;;;4.70;99.90;;;;;;4996571;28;20109;-76
2021/12/05 08:00:30;;;;;;;7.80;2.80;;;4.70;99.90;;;;;;4996715;28;20026;-76
2021/12/05 08:16:01;;;;;;;9.77;3.35;;;4.80;99.90;;;;;;4996741;28;20093;-77
2021/12/05 08:18:29;;;;;;;7.32;3.65;;;4.70;99.90;;;;;;4978859;28;20380;-75
2021/12/05 08:20:56;;;;;;;11.13;4.05;;;4.70;99.90;;;;;;4996819;28;20033;-75
2021/12/05 08:23:23;;;;;;;6.13;3.05;;;4.70;99.90;;;;;;4996306;28;20018;-75
2021/12/05 08:25:58;;;;;;;8.43;4.20;;;4.70;99.90;;;;;;4978963;28;20448;-75
2021/12/05 08:34:49;;;;;;;7.82;3.67;;;4.70;99.90;;;;;;4996811;28;20041;-75
2021/12/05 09:23:47;;;;;;;8.13;3.67;;;5.10;99.90;;;;;;4995599;28;20117;-76
2021/12/05 10:12:52;;;;;;;8.30;4.25;;;5.80;99.90;;;;;;5003768;28;20037;-75
2021/12/05 10:27:08;;;;;;;6.82;3.38;;;5.80;99.90;;;;;;5003625;28;20068;-76
2021/12/05 10:40:39;;;;;;;12.27;4.32;;;5.90;99.90;;;;;;5003242;28;20041;-73
2021/12/05 10:43:17;;;;;;;8.05;3.85;;;6.00;99.90;;;;;;5002370;28;20471;-73
2021/12/05 10:45:45;;;;;;;;;;;6.00;99.90;;;;;;4985665;28;20029;-74
2021/12/05 10:48:22;;;;;;;9.05;3.83;;;6.10;99.90;;;;;;4985376;28;20425;-74
2021/12/05 10:50:51;;;;;;;11.27;4.05;;;6.10;99.90;;;;;;4984871;28;20030;-73
2021/12/05 10:53:16;;;;;;;10.25;4.25;;;6.10;99.90;;;;;;5002845;28;20026;-73
2021/12/05 10:55:43;;;;;;;11.07;4.28;;;6.10;99.90;;;;;;4985133;28;20550;-73
2021/12/05 10:58:08;;;;;;;8.63;3.88;;;6.10;99.90;;;;;;5003019;28;20029;-74
2021/12/05 11:00:34;;;;;;;8.48;3.53;;;6.00;99.90;;;;;;5002986;28;20030;-73
2021/12/05 11:03:18;;;;;;;9.82;4.05;;;6.10;99.90;;;;;;5002424;28;20394;-74
2021/12/05 11:05:44;;;;;;;7.28;3.70;;;6.10;99.90;;;;;;5003733;28;20022;-73
2021/12/05 11:08:33;;;;;;;7.05;3.47;;;6.10;99.90;;;;;;5002842;28;20085;-74
2021/12/05 11:11:16;;;;;;;9.15;3.65;;;6.20;99.90;;;;;;4998575;28;20113;-73
2021/12/05 11:13:44;;;;;;;10.25;4.10;;;6.20;99.90;;;;;;4999831;28;20026;-73
2021/12/05 11:16:36;;;;;;;9.35;3.53;;;6.20;99.90;;;;;;4999264;28;20022;-73
2021/12/05 11:19:12;;;;;;;9.35;3.97;;;6.20;99.90;;;;;;4999212;28;20420;-73
2021/12/05 11:21:46;;;;;;;9.40;3.50;;;6.30;99.90;;;;;;4999696;28;20033;-73
2021/12/05 11:24:25;;;;;;;10.77;3.28;;;6.30;99.90;;;;;;4982251;28;20026;-72
2021/12/05 11:27:40;;;;;;;7.70;3.45;;;6.40;99.90;;;;;;4999348;28;20027;-73
2021/12/05 11:30:46;;;;;;;7.32;3.50;;;6.40;99.90;;;;;;4902292;29;20131;-72
2021/12/05 11:33:19;;;;;;;9.48;3.80;;;6.40;99.90;;;;;;4977801;28;20027;-72
2021/12/05 11:35:49;;;;;;;9.25;3.83;;;7.90;99.90;;;;;;5011762;28;20041;-73
2021/12/05 11:38:15;;;;;;;11.15;4.40;;;6.50;99.90;;;;;;5018121;28;20022;-73
2021/12/05 11:40:47;;;;;;;10.85;4.93;;;6.50;99.90;;;;;;5000526;28;20026;-72
2021/12/05 11:43:16;;;;;;;8.95;4.20;;;6.60;99.90;;;;;;5017799;28;20027;-72
2021/12/05 11:45:56;;;;;;;11.43;4.93;;;6.50;99.90;;;;;;4982667;28;20022;-72
2021/12/05 11:48:27;;;;;;;11.80;5.60;;;6.50;99.90;;;;;;4980901;28;20427;-73
2021/12/05 11:50:53;;;;;;;10.85;5.05;;;6.50;99.90;;;;;;4998318;28;20027;-72
2021/12/05 11:53:43;;;;;;;12.88;5.32;;;6.50;99.90;;;;;;4998082;28;20018;-73
2021/12/05 11:56:16;;;;;;;14.98;5.65;;;6.40;99.90;;;;;;4996872;28;20030;-77
2021/12/05 11:58:42;;;;;;;13.10;5.30;;;6.40;99.90;;;;;;4996842;28;20054;-77
2021/12/05 12:01:13;;;;;;;12.57;5.18;;;6.40;99.90;;;;;;4996518;28;20096;-76
2021/12/05 12:03:40;;;;;;;10.65;4.88;;;6.40;99.90;;;;;;4996385;28;20085;-77
2021/12/05 12:06:07;;;;;;;15.93;5.38;;;6.40;99.90;;;;;;4996980;28;20026;-77
2021/12/05 12:08:32;;;;;;;12.55;4.65;;;6.40;99.90;;;;;;4996415;28;20406;-76
2021/12/05 12:11:01;;;;;;;10.60;4.25;;;6.40;99.90;;;;;;4978963;28;20030;-75
2021/12/05 12:13:35;;;;;;;8.85;3.47;;;6.40;99.90;;;;;;4978345;28;20026;-76
2021/12/05 12:16:07;;;;;;;12.48;4.35;;;6.40;99.90;;;;;;4995350;28;20399;-78
2021/12/05 12:18:38;;;;;;;10.02;3.90;;;6.50;99.90;;;;;;4978160;28;20034;-75
2021/12/05 12:21:26;;;;;;;8.95;3.40;;;6.40;99.90;;;;;;4995123;28;20030;-74
2021/12/05 12:23:55;;;;;;;9.50;3.72;;;6.50;99.90;;;;;;4994965;28;20109;-75
2021/12/05 12:26:22;;;;;;;8.57;3.17;;;6.50;99.90;;;;;;4959050;28;20023;-75
2021/12/05 12:28:48;;;;;;;8.05;3.22;;;6.50;99.90;;;;;;4976412;28;20042;-76
2021/12/05 12:31:15;;;;;;;11.68;3.90;;;6.60;99.90;;;;;;4994894;28;20096;-75
2021/12/05 12:33:46;;;;;;;11.73;4.53;;;6.60;99.90;;;;;;4995063;28;20105;-74
2021/12/05 12:36:12;;;;;;;12.93;4.22;;;6.70;99.90;;;;;;4995394;28;20030;-76
2021/12/05 12:38:42;;;;;;;8.10;3.78;;;6.80;99.90;;;;;;4994965;28;20030;-75
2021/12/05 12:41:17;;;;;;;11.48;4.28;;;6.90;99.90;;;;;;4995235;28;20031;-75
2021/12/05 12:43:56;;;;;;;10.57;4.43;;;6.90;99.90;;;;;;4994893;28;20030;-77
2021/12/05 12:46:25;;;;;;;11.52;4.25;;;6.90;99.90;;;;;;4995252;28;20049;-77
2021/12/05 12:48:58;;;;;;;8.90;3.60;;;6.90;99.90;;;;;;4977646;28;20127;-75
2021/12/05 12:51:39;;;;;;;10.18;4.15;;;6.90;99.90;;;;;;4995326;28;20522;-77
2021/12/05 12:54:27;;;;;;;9.20;3.83;;;6.80;99.90;;;;;;4995248;28;20468;-77
2021/12/05 12:57:14;;;;;;;9.70;4.60;;;6.80;99.90;;;;;;4995502;28;20484;-77
2021/12/05 13:00:09;;;;;;;9.88;4.38;;;6.80;99.90;;;;;;4994637;28;20037;-77
2021/12/05 13:03:13;;;;;;;9.70;3.45;;;6.80;99.90;;;;;;4976447;28;20049;-77
2021/12/05 13:05:51;;;;;;;13.10;4.25;;;6.80;99.90;;;;;;4994285;28;20507;-76
2021/12/05 13:11:20;;;;;;;13.13;5.47;;;6.60;99.90;;;;;;4976368;28;20082;-77
2021/12/05 13:13:57;;;;;;;12.60;4.60;;;6.50;99.90;;;;;;4978527;28;20041;-77
2021/12/05 13:16:29;;;;;;;8.73;4.25;;;6.50;99.90;;;;;;4994477;28;20466;-78
2021/12/05 13:19:10;;;;;;;12.50;4.80;;;6.40;99.90;;;;;;4995224;28;20030;-78
2021/12/05 13:21:42;;;;;;;10.30;3.72;;;6.30;99.90;;;;;;4995482;28;20030;-76
2021/12/05 13:24:25;;;;;;;9.10;3.60;;;6.20;99.90;;;;;;4995945;28;20026;-76
2021/12/05 13:26:52;;;;;;;12.55;4.30;;;6.20;99.90;;;;;;4976938;28;20018;-76
2021/12/05 13:29:23;;;;;;;9.18;4.10;;;6.10;99.90;;;;;;4994665;28;20026;-77
2021/12/05 13:32:10;;;;;;;10.32;4.35;;;6.10;99.90;;;;;;4993837;28;20080;-76
2021/12/05 13:34:45;;;;;;;10.77;3.95;;;6.10;99.90;;;;;;4994679;28;20110;-77
2021/12/05 13:37:13;;;;;;;11.30;3.78;;;6.00;99.90;;;;;;4994599;28;20471;-76
2021/12/05 13:40:00;;;;;;;10.70;4.03;;;6.00;99.90;;;;;;4977504;28;20027;-77
2021/12/05 13:42:35;;;;;;;9.30;3.92;;;6.00;99.90;;;;;;4994582;28;20484;-77
2021/12/05 13:45:06;;;;;;;8.40;3.17;;;6.00;99.90;;;;;;4994728;28;20042;-77
2021/12/05 13:47:43;;;;;;;9.48;3.70;;;6.00;99.90;;;;;;4977025;28;20077;-77
2021/12/05 13:50:42;;;;;;;9.38;3.80;;;6.00;99.90;;;;;;4994690;28;20356;-77
2021/12/05 13:53:07;;;;;;;9.45;3.75;;;5.90;99.90;;;;;;4977994;28;20090;-77
2021/12/05 13:56:02;;;;;;;8.20;3.00;;;5.90;99.90;;;;;;4995120;28;20103;-78
2021/12/05 13:58:35;;;;;;;8.57;3.55;;;6.00;99.90;;;;;;4977326;28;20023;-77
2021/12/05 14:01:03;;;;;;;8.35;3.28;;;6.00;99.90;;;;;;4977807;28;20044;-77
2021/12/05 14:03:49;;;;;;;6.75;3.03;;;5.90;99.90;;;;;;4994899;28;20026;-77
2021/12/05 14:06:35;;;;;;;8.57;2.90;;;6.00;99.90;;;;;;4994594;28;20109;-77
2021/12/05 14:09:13;;;;;;;11.45;3.47;;;5.90;99.90;;;;;;4977055;28;20088;-77
2021/12/05 14:11:50;;;;;;;10.18;3.28;;;5.90;99.90;;;;;;4976970;28;20142;-77
2021/12/05 14:14:18;;;;;;;8.52;3.78;;;5.90;99.90;;;;;;4977122;28;20027;-77
2021/12/05 14:16:46;;;;;;;6.35;2.53;;;5.90;99.90;;;;;;4994811;28;20392;-77
2021/12/05 14:19:15;;;;;;;7.88;2.90;;;5.90;99.90;;;;;;4976559;28;20025;-77
2021/12/05 14:21:43;;;;;;;7.20;2.97;;;5.90;99.90;;;;;;4976598;28;20177;-77
2021/12/05 14:24:10;;;;;;;10.32;2.85;;;5.90;99.90;;;;;;4976967;28;20018;-77
2021/12/05 14:26:39;;;;;;;8.05;3.17;;;5.90;99.90;;;;;;4977190;28;20042;-77
2021/12/05 14:29:19;;;;;;;6.75;2.92;;;5.90;99.90;;;;;;4976370;28;20026;-77
2021/12/05 14:31:55;;;;;;;10.68;3.55;;;5.90;99.90;;;;;;4994922;28;20022;-71
2021/12/05 14:34:21;;;;;;;10.10;3.78;;;5.80;99.90;;;;;;4976241;28;20553;-74
2021/12/05 14:36:55;;;;;;;10.52;3.75;;;5.80;99.90;;;;;;4976476;28;20072;-73
2021/12/05 14:39:31;;;;;;;9.02;3.40;;;5.80;99.90;;;;;;4993712;28;20105;-72
2021/12/05 14:42:00;;;;;;;8.65;3.15;;;5.90;99.90;;;;;;4993895;28;20166;-77
2021/12/05 14:44:26;;;;;;;8.48;4.13;;;5.80;99.90;;;;;;4979022;28;20041;-76
2021/12/05 14:46:56;;;;;;;9.40;3.10;;;5.80;99.90;;;;;;4997370;28;20109;-76
2021/12/05 14:49:25;;;;;;;7.75;2.80;;;5.80;99.90;;;;;;4997479;28;20085;-76
2021/12/05 14:51:51;;;;;;;7.68;3.17;;;5.80;99.90;;;;;;4979758;28;20133;-75
2021/12/05 14:54:21;;;;;;;7.75;2.83;;;5.80;99.90;;;;;;4980134;28;20027;-72
2021/12/05 14:56:47;;;;;;;6.88;2.97;;;5.80;99.90;;;;;;4997416;28;20109;-77
2021/12/05 14:59:14;;;;;;;8.40;3.13;;;5.70;99.90;;;;;;4979853;28;20109;-76
2021/12/05 15:01:43;;;;;;;6.57;2.55;;;5.70;99.90;;;;;;4997302;28;20030;-77
2021/12/05 15:04:10;;;;;;;;;;;5.70;99.90;;;;;;4997846;28;20376;-77
2021/12/05 15:06:43;;;;;;;7.28;2.88;;;5.70;99.90;;;;;;4996782;28;20446;-76
2021/12/05 15:09:16;;;;;;;7.90;2.47;;;5.70;99.90;;;;;;4979795;28;20117;-76
2021/12/05 15:11:53;;;;;;;5.45;2.53;;;5.70;99.90;;;;;;4979384;28;20026;-76
2021/12/05 15:14:19;;;;;;;6.82;2.58;;;5.60;99.90;;;;;;4979640;28;20014;-77
2021/12/05 15:17:01;;;;;;;6.38;2.47;;;5.60;99.90;;;;;;4996988;28;20018;-77
2021/12/05 15:19:27;;;;;;;6.40;2.42;;;5.60;99.90;;;;;;4997395;28;20029;-76
2021/12/05 15:21:53;;;;;;;6.10;2.63;;;5.60;99.90;;;;;;4997063;28;20022;-77
2021/12/05 15:24:21;;;;;;;6.07;2.47;;;5.60;99.90;;;;;;4979135;28;20391;-76
2021/12/05 15:26:48;;;;;;;6.88;2.78;;;5.50;99.90;;;;;;4996977;28;20394;-75
2021/12/05 15:29:13;;;;;;;7.60;3.65;;;5.50;99.90;;;;;;4978920;28;20030;-71
2021/12/05 15:31:41;;;;;;;7.00;2.88;;;5.50;99.90;;;;;;4979582;28;20027;-76
2021/12/05 15:34:23;;;;;;;6.88;3.00;;;5.50;99.90;;;;;;4996827;28;20157;-76
2021/12/05 15:36:49;;;;;;;10.60;4.13;;;5.50;99.90;;;;;;4996489;28;20157;-75
2021/12/05 15:39:20;;;;;;;8.98;3.38;;;5.50;99.90;;;;;;4996218;28;20475;-75
2021/12/05 15:41:52;;;;;;;6.80;3.20;;;5.50;99.90;;;;;;4996841;28;20080;-75
2021/12/05 15:44:36;;;;;;;8.18;3.47;;;5.50;99.90;;;;;;4996279;28;20030;-75
2021/12/05 15:47:08;;;;;;;8.15;3.58;;;5.40;99.90;;;;;;4978420;28;20049;-74
2021/12/05 15:49:48;;;;;;;8.10;4.43;;;5.40;99.90;;;;;;4996701;28;20037;-75
2021/12/05 15:52:14;;;;;;;6.03;3.67;;;5.40;99.90;;;;;;4978923;28;20061;-75
2021/12/05 15:54:43;;;;;;;8.60;3.78;;;5.40;99.90;;;;;;4978431;28;20023;-74
2021/12/05 15:57:16;;;;;;;8.15;3.45;;;5.40;99.90;;;;;;4978901;28;20022;-75
2021/12/05 15:59:46;;;;;;;11.38;4.45;;;5.40;99.90;;;;;;4979096;28;20033;-75
2021/12/05 16:02:17;;;;;;;11.48;4.68;;;5.30;99.90;;;;;;4995879;28;20606;-74
2021/12/05 16:04:42;;;;;;;18.77;6.40;;;5.40;99.90;;;;;;4978675;28;20488;-76
2021/12/05 16:07:10;;;;;;;22.40;6.95;;;5.30;99.90;;;;;;4996265;28;20047;-75
2021/12/05 16:09:40;;;;;;;20.70;6.68;;;5.30;99.90;;;;;;4978665;28;20038;-76
2021/12/05 16:12:16;;;;;;;20.27;7.25;;;5.30;99.90;;;;;;4978670;28;20117;-77
2021/12/05 16:14:45;;;;;;;15.25;6.25;;;5.30;99.90;;;;;;4978488;28;20381;-76
2021/12/05 16:17:17;;;;;;;;;;;5.20;99.90;;;;;;4996816;28;20026;-73
2021/12/05 16:20:10;;;;;;;9.57;3.95;;;5.30;99.90;;;;;;4995758;28;20291;-75
2021/12/05 16:23:06;;;;;;;10.02;3.53;;;5.30;99.90;;;;;;4996274;28;20546;-76
2021/12/05 16:25:57;;;;;;;13.43;4.60;;;5.20;99.90;;;;;;4996290;28;20030;-76
2021/12/05 16:28:32;;;;;;;11.30;4.38;;;5.20;99.90;;;;;;4995347;28;20042;-76
2021/12/05 16:31:06;;;;;;;8.73;4.07;;;5.30;99.90;;;;;;4995933;28;20030;-74
2021/12/05 16:33:34;;;;;;;10.90;3.72;;;5.30;99.90;;;;;;4996488;28;20022;-74
2021/12/05 16:36:00;;;;;;;7.55;3.25;;;5.20;99.90;;;;;;4995511;28;20109;-75
2021/12/05 16:38:32;;;;;;;8.57;4.55;;;5.20;99.90;;;;;;4995621;28;20023;-75
2021/12/05 16:41:21;;;;;;;9.35;3.90;;;5.20;99.90;;;;;;4995592;28;20157;-74
2021/12/05 16:43:53;;;;;;;;;;;5.20;99.90;;;;;;4996158;28;20018;-73
2021/12/05 16:46:30;;;;;;;12.00;4.45;;;5.30;99.90;;;;;;4977572;28;19960;-75
2021/12/05 16:48:58;;;;;;;9.60;4.22;;;6.20;99.90;;;;;;4995001;28;20034;-76
2021/12/05 16:51:30;;;;;;;14.45;6.03;;;5.30;99.90;;;;;;4994837;28;20042;-74
2021/12/05 16:54:03;;;;;;;12.23;5.03;;;5.30;99.90;;;;;;4995092;28;20089;-74
2021/12/05 16:56:44;;;;;;;12.60;5.00;;;5.30;99.90;;;;;;4995131;28;20072;-75
2021/12/05 16:59:17;;;;;;;16.92;5.30;;;5.20;99.90;;;;;;4995499;28;20022;-74
2021/12/05 17:01:43;;;;;;;10.73;5.18;;;5.30;99.90;;;;;;4994752;28;20037;-75
2021/12/05 17:04:11;;;;;;;13.13;6.00;;;5.20;99.90;;;;;;4977227;28;20026;-75
2021/12/05 17:06:51;;;;;;;14.90;6.72;;;5.20;99.90;;;;;;4993675;28;20054;-71
2021/12/05 17:09:17;;;;;;;18.10;7.80;;;5.20;99.90;;;;;;4994508;28;20018;-74
2021/12/05 17:11:43;;;;;;;12.68;7.13;;;5.20;99.90;;;;;;4994424;28;20034;-74
2021/12/05 17:14:22;;;;;;;12.75;6.22;;;5.30;99.90;;;;;;4976994;28;20029;-74
2021/12/05 17:16:49;;;;;;;13.65;7.03;;;5.20;99.90;;;;;;4994421;28;20080;-73
2021/12/05 17:19:18;;;;;;;19.42;7.70;;;5.20;99.90;;;;;;4994162;28;20026;-74
2021/12/05 17:21:49;;;;;;;;;;;5.30;99.90;;;;;;4977266;28;20038;-75
2021/12/05 17:24:20;;;;;;;11.43;6.18;;;5.30;99.90;;;;;;4976977;28;19905;-74
2021/12/05 17:26:57;;;;;;;13.02;5.72;;;5.30;99.90;;;;;;4976842;28;20027;-74
2021/12/05 17:29:26;;;;;;;16.95;6.63;;;5.30;99.90;;;;;;4994153;28;20034;-75
2021/12/05 17:31:53;;;;;;;;;;;5.20;99.90;;;;;;4977073;28;20483;-75
2021/12/05 17:34:23;;;;;;;17.80;6.55;;;5.20;99.90;;;;;;4994144;28;19913;-75
2021/12/05 17:36:59;;;;;;;15.48;6.57;;;5.20;99.90;;;;;;4994397;28;20027;-76
2021/12/05 17:39:29;;;;;;;17.42;7.88;;;5.20;99.90;;;;;;4994255;28;20029;-75
2021/12/05 17:42:17;;;;;;;16.75;6.90;;;5.20;99.90;;;;;;4976548;28;20076;-75
2021/12/05 17:44:45;;;;;;;17.55;6.60;;;5.20;99.90;;;;;;4993907;28;20034;-75
2021/12/05 17:47:14;;;;;;;13.63;6.20;;;5.20;99.90;;;;;;4976547;28;20026;-76
2021/12/05 17:49:42;;;;;;;18.02;8.38;;;5.90;99.90;;;;;;4994015;28;20117;-74
2021/12/05 17:52:11;;;;;;;18.50;9.07;;;5.20;99.90;;;;;;4976470;28;20030;-75
2021/12/05 17:54:53;;;;;;;19.63;8.05;;;5.20;99.90;;;;;;4994405;28;20022;-75
2021/12/05 17:57:31;;;;;;;25.33;8.82;;;5.20;99.90;;;;;;4994342;28;20377;-75
2021/12/05 18:00:14;;;;;;;20.45;8.30;;;5.20;99.90;;;;;;4994519;28;20015;-76
2021/12/05 18:02:46;;;;;;;21.48;8.30;;;5.10;99.90;;;;;;4994294;28;20046;-75
2021/12/05 18:05:22;;;;;;;18.10;7.45;;;5.10;99.90;;;;;;4994375;28;20054;-74
2021/12/05 18:07:50;;;;;;;20.33;8.40;;;5.00;99.90;;;;;;4994271;28;20061;-74
2021/12/05 18:10:18;;;;;;;18.85;8.20;;;5.00;99.90;;;;;;4994098;28;20035;-74
2021/12/05 18:12:45;;;;;;;20.30;8.88;;;4.90;99.90;;;;;;4994328;28;20097;-74
2021/12/05 18:15:19;;;;;;;19.75;8.80;;;4.90;99.90;;;;;;4993850;28;20034;-74
2021/12/05 18:17:45;;;;;;;27.17;9.07;;;5.00;99.90;;;;;;4993851;28;20054;-70
2021/12/05 18:20:15;;;;;;;22.50;8.15;;;5.00;99.90;;;;;;4980141;28;20054;-70
2021/12/05 18:22:41;;;;;;;21.08;8.07;;;5.00;99.90;;;;;;4997559;28;20026;-70